sensor_id;sensor_type;location;lat;lon;timestamp;pressure;altitude;pressure_sealevel;temperature;humidity
71772;BME280;59606;52.138;5.424;2022-07-06T00:01:53;102678.34;;;13.97;68.77
71772;BME280;59606;52.138;5.424;2022-07-06T00:04:22;102684.50;;;13.96;68.37
71772;BME280;59606;52.138;5.424;2022-07-06T00:06:50;102679.44;;;13.91;68.44
71772;BME280;59606;52.138;5.424;2022-07-06T00:09:17;102682.19;;;13.88;68.77
71772;BME280;59606;52.138;5.424;2022-07-06T00:11:44;102683.16;;;13.86;68.92
71772;BME280;59606;52.138;5.424;2022-07-06T00:14:10;102678.97;;;13.82;69.09
71772;BME280;59606;52.138;5.424;2022-07-06T00:16:38;102681.63;;;13.80;68.66
71772;BME280;59606;52.138;5.424;2022-07-06T00:19:05;102679.13;;;13.77;68.84
71772;BME280;59606;52.138;5.424;2022-07-06T00:21:32;102677.47;;;13.75;68.71
71772;BME280;59606;52.138;5.424;2022-07-06T00:23:58;102679.31;;;13.73;68.66
71772;BME280;59606;52.138;5.424;2022-07-06T00:26:25;102669.78;;;13.70;68.85
71772;BME280;59606;52.138;5.424;2022-07-06T00:28:51;102674.38;;;13.65;69.86
71772;BME280;59606;52.138;5.424;2022-07-06T00:31:20;102676.22;;;13.61;69.62
71772;BME280;59606;52.138;5.424;2022-07-06T00:33:47;102672.84;;;13.59;69.68
71772;BME280;59606;52.138;5.424;2022-07-06T00:36:13;102663.41;;;13.55;69.83
71772;BME280;59606;52.138;5.424;2022-07-06T00:38:40;102673.03;;;13.55;69.90
71772;BME280;59606;52.138;5.424;2022-07-06T00:41:07;102660.88;;;13.52;69.89
71772;BME280;59606;52.138;5.424;2022-07-06T00:43:53;102671.59;;;13.46;70.03
71772;BME280;59606;52.138;5.424;2022-07-06T00:46:31;102666.53;;;13.41;70.30
71772;BME280;59606;52.138;5.424;2022-07-06T00:48:58;102663.16;;;13.38;70.50
71772;BME280;59606;52.138;5.424;2022-07-06T00:51:29;102662.25;;;13.39;70.99
71772;BME280;59606;52.138;5.424;2022-07-06T00:53:59;102668.47;;;13.36;70.84
71772;BME280;59606;52.138;5.424;2022-07-06T00:56:29;102665.03;;;13.34;71.17
71772;BME280;59606;52.138;5.424;2022-07-06T00:58:56;102670.44;;;13.30;70.83
71772;BME280;59606;52.138;5.424;2022-07-06T01:01:23;102673.97;;;13.29;71.02
71772;BME280;59606;52.138;5.424;2022-07-06T01:03:52;102672.25;;;13.28;71.25
71772;BME280;59606;52.138;5.424;2022-07-06T01:06:21;102675.78;;;13.27;71.30
71772;BME280;59606;52.138;5.424;2022-07-06T01:08:48;102672.41;;;13.23;71.66
71772;BME280;59606;52.138;5.424;2022-07-06T01:11:16;102682.88;;;13.23;71.55
71772;BME280;59606;52.138;5.424;2022-07-06T01:13:44;102680.38;;;13.20;71.91
71772;BME280;59606;52.138;5.424;2022-07-06T01:16:11;102686.50;;;13.19;71.39
71772;BME280;59606;52.138;5.424;2022-07-06T01:18:38;102682.19;;;13.18;71.36
71772;BME280;59606;52.138;5.424;2022-07-06T01:21:10;102683.16;;;13.15;71.16
71772;BME280;59606;52.138;5.424;2022-07-06T01:23:45;102688.44;;;13.14;70.88
71772;BME280;59606;52.138;5.424;2022-07-06T01:26:17;102680.75;;;13.09;71.77
71772;BME280;59606;52.138;5.424;2022-07-06T01:28:47;102686.16;;;13.05;72.08
71772;BME280;59606;52.138;5.424;2022-07-06T01:33:43;102676.66;;;13.02;71.50
71772;BME280;59606;52.138;5.424;2022-07-06T01:36:10;102677.56;;;13.01;71.78
71772;BME280;59606;52.138;5.424;2022-07-06T01:38:51;102666.28;;;12.99;71.79
71772;BME280;59606;52.138;5.424;2022-07-06T01:41:18;102668.06;;;12.98;72.23
71772;BME280;59606;52.138;5.424;2022-07-06T01:43:45;102666.41;;;12.96;71.74
71772;BME280;59606;52.138;5.424;2022-07-06T01:46:12;102658.66;;;12.93;71.80
71772;BME280;59606;52.138;5.424;2022-07-06T01:48:39;102662.19;;;12.92;72.12
71772;BME280;59606;52.138;5.424;2022-07-06T01:51:06;102659.72;;;12.87;72.00
71772;BME280;59606;52.138;5.424;2022-07-06T01:53:33;102668.44;;;12.88;72.06
71772;BME280;59606;52.138;5.424;2022-07-06T01:55:59;102672.91;;;12.84;72.57
71772;BME280;59606;52.138;5.424;2022-07-06T01:58:26;102668.66;;;12.82;72.74
71772;BME280;59606;52.138;5.424;2022-07-06T02:00:52;102671.28;;;12.82;72.77
71772;BME280;59606;52.138;5.424;2022-07-06T02:03:19;102664.38;;;12.79;72.82
71772;BME280;59606;52.138;5.424;2022-07-06T02:05:46;102662.78;;;12.75;73.09
71772;BME280;59606;52.138;5.424;2022-07-06T02:08:13;102660.31;;;12.70;73.00
71772;BME280;59606;52.138;5.424;2022-07-06T02:10:39;102664.75;;;12.68;73.18
71772;BME280;59606;52.138;5.424;2022-07-06T02:13:06;102666.53;;;12.68;72.83
71772;BME280;59606;52.138;5.424;2022-07-06T02:15:33;102664.78;;;12.67;73.00
71772;BME280;59606;52.138;5.424;2022-07-06T02:18:00;102666.56;;;12.66;73.08
71772;BME280;59606;52.138;5.424;2022-07-06T02:20:26;102663.16;;;12.64;73.02
71772;BME280;59606;52.138;5.424;2022-07-06T02:22:53;102653.66;;;12.62;73.38
71772;BME280;59606;52.138;5.424;2022-07-06T02:25:19;102656.31;;;12.60;73.79
71772;BME280;59606;52.138;5.424;2022-07-06T02:27:46;102662.38;;;12.61;73.87
71772;BME280;59606;52.138;5.424;2022-07-06T02:30:12;102656.28;;;12.62;73.27
71772;BME280;59606;52.138;5.424;2022-07-06T02:32:39;102664.97;;;12.62;73.78
71772;BME280;59606;52.138;5.424;2022-07-06T02:35:06;102659.72;;;12.62;73.51
71772;BME280;59606;52.138;5.424;2022-07-06T02:37:32;102662.44;;;12.59;73.97
71772;BME280;59606;52.138;5.424;2022-07-06T02:39:59;102669.53;;;12.56;73.96
71772;BME280;59606;52.138;5.424;2022-07-06T02:42:25;102665.16;;;12.56;74.25
71772;BME280;59606;52.138;5.424;2022-07-06T02:44:53;102669.53;;;12.56;74.37
71772;BME280;59606;52.138;5.424;2022-07-06T02:47:19;102678.13;;;12.59;74.43
71772;BME280;59606;52.138;5.424;2022-07-06T02:49:46;102678.13;;;12.59;74.71
71772;BME280;59606;52.138;5.424;2022-07-06T02:52:12;102677.28;;;12.59;74.53
71772;BME280;59606;52.138;5.424;2022-07-06T02:54:39;102676.38;;;12.60;74.73
71772;BME280;59606;52.138;5.424;2022-07-06T02:57:06;102679.84;;;12.60;74.73
71772;BME280;59606;52.138;5.424;2022-07-06T02:59:32;102673.66;;;12.63;74.73
71772;BME280;59606;52.138;5.424;2022-07-06T03:01:59;102674.47;;;12.65;75.02
71772;BME280;59606;52.138;5.424;2022-07-06T03:04:25;102674.41;;;12.66;74.94
71772;BME280;59606;52.138;5.424;2022-07-06T03:06:52;102680.47;;;12.67;75.06
71772;BME280;59606;52.138;5.424;2022-07-06T03:09:18;102674.41;;;12.66;74.72
71772;BME280;59606;52.138;5.424;2022-07-06T03:11:45;102679.63;;;12.66;75.11
71772;BME280;59606;52.138;5.424;2022-07-06T03:14:11;102677.03;;;12.66;75.02
71772;BME280;59606;52.138;5.424;2022-07-06T03:16:38;102676.16;;;12.66;75.21
71772;BME280;59606;52.138;5.424;2022-07-06T03:19:04;102680.44;;;12.68;75.50
71772;BME280;59606;52.138;5.424;2022-07-06T03:21:31;102682.22;;;12.68;75.38
71772;BME280;59606;52.138;5.424;2022-07-06T03:23:57;102680.38;;;12.70;75.99
71772;BME280;59606;52.138;5.424;2022-07-06T03:26:24;102686.34;;;12.73;75.38
71772;BME280;59606;52.138;5.424;2022-07-06T03:28:51;102694.16;;;12.75;75.64
71772;BME280;59606;52.138;5.424;2022-07-06T03:31:17;102679.31;;;12.76;75.84
71772;BME280;59606;52.138;5.424;2022-07-06T03:33:44;102691.50;;;12.77;75.70
71772;BME280;59606;52.138;5.424;2022-07-06T03:36:10;102684.47;;;12.79;75.58
71772;BME280;59606;52.138;5.424;2022-07-06T03:38:37;102683.53;;;12.80;76.35
71772;BME280;59606;52.138;5.424;2022-07-06T03:41:04;102680.19;;;12.76;76.73
71772;BME280;59606;52.138;5.424;2022-07-06T03:43:30;102678.41;;;12.77;76.34
71772;BME280;59606;52.138;5.424;2022-07-06T03:45:57;102676.59;;;12.79;76.31
71772;BME280;59606;52.138;5.424;2022-07-06T03:48:23;102674.78;;;12.81;76.21
71772;BME280;59606;52.138;5.424;2022-07-06T03:50:51;102678.31;;;12.80;76.62
71772;BME280;59606;52.138;5.424;2022-07-06T03:53:17;102680.00;;;12.81;76.77
71772;BME280;59606;52.138;5.424;2022-07-06T03:55:44;102673.03;;;12.81;76.63
71772;BME280;59606;52.138;5.424;2022-07-06T03:58:31;102675.53;;;12.84;76.97
71772;BME280;59606;52.138;5.424;2022-07-06T04:00:58;102672.91;;;12.84;77.14
71772;BME280;59606;52.138;5.424;2022-07-06T04:03:24;102677.19;;;12.87;77.50
71772;BME280;59606;52.138;5.424;2022-07-06T04:05:58;102677.19;;;12.87;77.51
71772;BME280;59606;52.138;5.424;2022-07-06T04:08:25;102674.53;;;12.88;77.29
71772;BME280;59606;52.138;5.424;2022-07-06T04:10:51;102673.53;;;12.91;77.51
71772;BME280;59606;52.138;5.424;2022-07-06T04:13:18;102669.22;;;12.90;77.28
71772;BME280;59606;52.138;5.424;2022-07-06T04:15:44;102664.81;;;12.92;77.18
71772;BME280;59606;52.138;5.424;2022-07-06T04:18:11;102667.34;;;12.93;77.64
71772;BME280;59606;52.138;5.424;2022-07-06T04:20:37;102675.19;;;12.93;77.32
71772;BME280;59606;52.138;5.424;2022-07-06T04:23:04;102677.81;;;12.93;77.62
71772;BME280;59606;52.138;5.424;2022-07-06T04:25:30;102682.16;;;12.94;77.24
71772;BME280;59606;52.138;5.424;2022-07-06T04:27:57;102682.94;;;12.96;77.47
71772;BME280;59606;52.138;5.424;2022-07-06T04:30:23;102680.28;;;12.98;77.33
71772;BME280;59606;52.138;5.424;2022-07-06T04:32:50;102675.75;;;13.03;77.02
71772;BME280;59606;52.138;5.424;2022-07-06T04:35:17;102673.88;;;13.07;77.37
71772;BME280;59606;52.138;5.424;2022-07-06T04:37:43;102681.69;;;13.08;77.73
71772;BME280;59606;52.138;5.424;2022-07-06T04:40:13;102675.44;;;13.11;77.82
71772;BME280;59606;52.138;5.424;2022-07-06T04:42:44;102672.72;;;13.14;77.76
71772;BME280;59606;52.138;5.424;2022-07-06T04:45:11;102680.38;;;13.20;78.07
71772;BME280;59606;52.138;5.424;2022-07-06T04:47:37;102672.41;;;13.25;77.57
71772;BME280;59606;52.138;5.424;2022-07-06T04:50:04;102679.22;;;13.29;77.73
71772;BME280;59606;52.138;5.424;2022-07-06T04:52:31;102678.13;;;13.34;77.84
71772;BME280;59606;52.138;5.424;2022-07-06T04:54:58;102671.00;;;13.38;77.44
71772;BME280;59606;52.138;5.424;2022-07-06T04:57:24;102674.38;;;13.41;77.50
71772;BME280;59606;52.138;5.424;2022-07-06T04:59:56;102675.91;;;13.47;77.26
71772;BME280;59606;52.138;5.424;2022-07-06T05:02:22;102674.81;;;13.53;77.35
71772;BME280;59606;52.138;5.424;2022-07-06T05:04:49;102677.16;;;13.60;77.27
71772;BME280;59606;52.138;5.424;2022-07-06T05:07:16;102669.06;;;13.66;76.88
71772;BME280;59606;52.138;5.424;2022-07-06T05:09:42;102679.34;;;13.71;77.05
71772;BME280;59606;52.138;5.424;2022-07-06T05:12:16;102684.31;;;13.79;76.88
71772;BME280;59606;52.138;5.424;2022-07-06T05:14:43;102680.53;;;13.86;77.03
71772;BME280;59606;52.138;5.424;2022-07-06T05:17:09;102685.44;;;13.95;76.22
71772;BME280;59606;52.138;5.424;2022-07-06T05:19:36;102681.81;;;13.98;76.22
71772;BME280;59606;52.138;5.424;2022-07-06T05:22:02;102686.78;;;14.05;76.34
71772;BME280;59606;52.138;5.424;2022-07-06T05:24:29;102690.97;;;14.09;76.17
71772;BME280;59606;52.138;5.424;2022-07-06T05:26:55;102691.63;;;14.14;75.78
71772;BME280;59606;52.138;5.424;2022-07-06T05:29:22;102690.66;;;14.17;75.44
71772;BME280;59606;52.138;5.424;2022-07-06T05:31:49;102686.88;;;14.24;75.58
71772;BME280;59606;52.138;5.424;2022-07-06T05:34:16;102682.09;;;14.34;75.75
71772;BME280;59606;52.138;5.424;2022-07-06T05:36:43;102687.91;;;14.42;76.00
71772;BME280;59606;52.138;5.424;2022-07-06T05:39:10;102689.91;;;14.57;75.10
71772;BME280;59606;52.138;5.424;2022-07-06T05:41:36;102679.88;;;14.67;74.51
71772;BME280;59606;52.138;5.424;2022-07-06T05:44:03;102681.78;;;14.84;76.21
71772;BME280;59606;52.138;5.424;2022-07-06T05:46:30;102687.34;;;14.97;73.81
71772;BME280;59606;52.138;5.424;2022-07-06T05:48:57;102683.66;;;15.01;74.04
71772;BME280;59606;52.138;5.424;2022-07-06T05:51:42;102696.53;;;15.07;73.47
71772;BME280;59606;52.138;5.424;2022-07-06T05:54:09;102697.72;;;15.19;72.68
71772;BME280;59606;52.138;5.424;2022-07-06T05:56:35;102691.09;;;15.30;72.82
71772;BME280;59606;52.138;5.424;2022-07-06T05:59:02;102701.91;;;15.43;70.73
71772;BME280;59606;52.138;5.424;2022-07-06T06:01:28;102695.09;;;15.58;71.58
71772;BME280;59606;52.138;5.424;2022-07-06T06:03:55;102691.59;;;15.95;69.18
71772;BME280;59606;52.138;5.424;2022-07-06T06:06:21;102674.72;;;16.53;70.62
71772;BME280;59606;52.138;5.424;2022-07-06T06:08:48;102688.44;;;17.43;65.92
71772;BME280;59606;52.138;5.424;2022-07-06T06:11:14;102683.47;;;18.18;64.10
71772;BME280;59606;52.138;5.424;2022-07-06T06:13:41;102680.91;;;18.91;59.93
71772;BME280;59606;52.138;5.424;2022-07-06T06:16:07;102691.22;;;19.39;58.89
71772;BME280;59606;52.138;5.424;2022-07-06T06:18:34;102680.81;;;19.91;58.18
71772;BME280;59606;52.138;5.424;2022-07-06T06:21:07;102678.38;;;19.88;55.67
71772;BME280;59606;52.138;5.424;2022-07-06T06:23:33;102684.47;;;19.47;56.94
71772;BME280;59606;52.138;5.424;2022-07-06T06:26:00;102684.66;;;18.73;57.99
71772;BME280;59606;52.138;5.424;2022-07-06T06:28:26;102689.59;;;18.03;59.73
71772;BME280;59606;52.138;5.424;2022-07-06T06:30:53;102695.97;;;17.51;61.55
71772;BME280;59606;52.138;5.424;2022-07-06T06:33:20;102697.47;;;17.06;62.92
71772;BME280;59606;52.138;5.424;2022-07-06T06:35:52;102703.53;;;16.73;62.39
71772;BME280;59606;52.138;5.424;2022-07-06T06:38:20;102711.91;;;16.47;63.71
71772;BME280;59606;52.138;5.424;2022-07-06T06:40:47;102711.75;;;16.50;63.81
71772;BME280;59606;52.138;5.424;2022-07-06T06:43:14;102711.91;;;16.47;63.90
71772;BME280;59606;52.138;5.424;2022-07-06T06:45:40;102714.69;;;16.44;63.93
71772;BME280;59606;52.138;5.424;2022-07-06T06:48:07;102706.78;;;16.44;66.43
71772;BME280;59606;52.138;5.424;2022-07-06T06:50:42;102706.69;;;16.63;65.18
71772;BME280;59606;52.138;5.424;2022-07-06T06:53:08;102706.47;;;16.67;65.09
71772;BME280;59606;52.138;5.424;2022-07-06T06:55:35;102709.66;;;16.74;65.06
71772;BME280;59606;52.138;5.424;2022-07-06T06:58:01;102705.56;;;16.86;64.36
71772;BME280;59606;52.138;5.424;2022-07-06T07:00:28;102711.47;;;16.91;63.04
71772;BME280;59606;52.138;5.424;2022-07-06T07:02:55;102710.72;;;17.05;63.07
71772;BME280;59606;52.138;5.424;2022-07-06T07:05:22;102705.91;;;17.13;61.52
71772;BME280;59606;52.138;5.424;2022-07-06T07:07:48;102713.84;;;17.29;61.25
71772;BME280;59606;52.138;5.424;2022-07-06T07:10:15;102713.97;;;17.43;60.87
71772;BME280;59606;52.138;5.424;2022-07-06T07:12:46;102701.97;;;17.37;60.84
71772;BME280;59606;52.138;5.424;2022-07-06T07:15:13;102703.16;;;17.32;60.48
71772;BME280;59606;52.138;5.424;2022-07-06T07:17:40;102711.31;;;17.43;60.99
71772;BME280;59606;52.138;5.424;2022-07-06T07:20:07;102713.88;;;17.44;60.03
71772;BME280;59606;52.138;5.424;2022-07-06T07:22:34;102714.97;;;17.25;60.17
71772;BME280;59606;52.138;5.424;2022-07-06T07:25:01;102723.09;;;17.20;58.89
71772;BME280;59606;52.138;5.424;2022-07-06T07:27:27;102718.69;;;17.03;59.22
71772;BME280;59606;52.138;5.424;2022-07-06T07:29:54;102716.63;;;16.92;60.96
71772;BME280;59606;52.138;5.424;2022-07-06T07:32:21;102716.75;;;17.07;59.39
71772;BME280;59606;52.138;5.424;2022-07-06T07:34:47;102708.84;;;17.07;58.70
71772;BME280;59606;52.138;5.424;2022-07-06T07:37:14;102716.28;;;17.16;58.54
71772;BME280;59606;52.138;5.424;2022-07-06T07:39:40;102712.69;;;17.34;60.88
71772;BME280;59606;52.138;5.424;2022-07-06T07:42:07;102706.84;;;17.45;57.95
71772;BME280;59606;52.138;5.424;2022-07-06T07:44:35;102708.09;;;17.54;56.64
71772;BME280;59606;52.138;5.424;2022-07-06T07:47:02;102715.19;;;17.69;55.35
71772;BME280;59606;52.138;5.424;2022-07-06T07:49:29;102716.13;;;17.68;56.15
71772;BME280;59606;52.138;5.424;2022-07-06T07:51:56;102718.47;;;17.57;53.87
71772;BME280;59606;52.138;5.424;2022-07-06T07:54:22;102720.44;;;17.53;53.76
71772;BME280;59606;52.138;5.424;2022-07-06T07:56:49;102708.47;;;17.48;56.75
71772;BME280;59606;52.138;5.424;2022-07-06T07:59:15;102710.03;;;17.83;56.53
71772;BME280;59606;52.138;5.424;2022-07-06T08:01:42;102709.00;;;18.02;53.97
71772;BME280;59606;52.138;5.424;2022-07-06T08:04:08;102711.63;;;18.18;53.93
71772;BME280;59606;52.138;5.424;2022-07-06T08:06:35;102704.25;;;18.38;52.79
71772;BME280;59606;52.138;5.424;2022-07-06T08:09:02;102711.09;;;18.57;51.16
71772;BME280;59606;52.138;5.424;2022-07-06T08:11:30;102700.19;;;18.63;52.12
71772;BME280;59606;52.138;5.424;2022-07-06T08:13:57;102696.88;;;18.59;53.15
71772;BME280;59606;52.138;5.424;2022-07-06T08:16:23;102696.50;;;18.66;54.02
71772;BME280;59606;52.138;5.424;2022-07-06T08:18:50;102699.88;;;18.83;52.64
71772;BME280;59606;52.138;5.424;2022-07-06T08:21:17;102701.00;;;18.79;52.32
71772;BME280;59606;52.138;5.424;2022-07-06T08:23:50;102703.06;;;18.74;52.74
71772;BME280;59606;52.138;5.424;2022-07-06T08:26:17;102705.91;;;18.86;51.95
71772;BME280;59606;52.138;5.424;2022-07-06T08:28:44;102703.22;;;19.01;52.35
71772;BME280;59606;52.138;5.424;2022-07-06T08:31:10;102697.72;;;19.04;51.42
71772;BME280;59606;52.138;5.424;2022-07-06T08:33:57;102698.28;;;18.95;50.87
71772;BME280;59606;52.138;5.424;2022-07-06T08:36:23;102699.88;;;18.98;51.08
71772;BME280;59606;52.138;5.424;2022-07-06T08:38:50;102699.50;;;18.90;51.42
71772;BME280;59606;52.138;5.424;2022-07-06T08:41:18;102697.88;;;18.73;50.19
71772;BME280;59606;52.138;5.424;2022-07-06T08:43:52;102701.50;;;18.70;50.69
71772;BME280;59606;52.138;5.424;2022-07-06T08:46:20;102698.72;;;18.73;50.77
71772;BME280;59606;52.138;5.424;2022-07-06T08:48:47;102691.78;;;18.71;50.47
71772;BME280;59606;52.138;5.424;2022-07-06T08:51:14;102691.75;;;18.72;49.34
71772;BME280;59606;52.138;5.424;2022-07-06T08:53:42;102690.09;;;18.70;49.77
71772;BME280;59606;52.138;5.424;2022-07-06T08:56:09;102693.38;;;18.75;49.76
71772;BME280;59606;52.138;5.424;2022-07-06T08:58:37;102681.47;;;18.82;49.91
71772;BME280;59606;52.138;5.424;2022-07-06T09:01:09;102693.84;;;18.96;49.17
71772;BME280;59606;52.138;5.424;2022-07-06T09:03:36;102692.06;;;19.11;49.90
71772;BME280;59606;52.138;5.424;2022-07-06T09:06:04;102688.09;;;19.32;51.12
71772;BME280;59606;52.138;5.424;2022-07-06T09:08:32;102696.38;;;19.54;49.64
71772;BME280;59606;52.138;5.424;2022-07-06T09:10:58;102695.97;;;19.75;48.04
71772;BME280;59606;52.138;5.424;2022-07-06T09:13:25;102698.22;;;19.81;48.84
71772;BME280;59606;52.138;5.424;2022-07-06T09:15:52;102693.97;;;19.93;48.09
71772;BME280;59606;52.138;5.424;2022-07-06T09:18:38;102689.38;;;19.82;49.28
71772;BME280;59606;52.138;5.424;2022-07-06T09:21:05;102692.94;;;19.81;48.64
71772;BME280;59606;52.138;5.424;2022-07-06T09:23:32;102690.66;;;19.89;48.22
71772;BME280;59606;52.138;5.424;2022-07-06T09:26:05;102695.84;;;19.91;49.58
71772;BME280;59606;52.138;5.424;2022-07-06T09:28:45;102697.09;;;19.85;47.79
71772;BME280;59606;52.138;5.424;2022-07-06T09:31:12;102695.69;;;19.80;48.55
71772;BME280;59606;52.138;5.424;2022-07-06T09:33:58;102688.41;;;19.83;48.72
71772;BME280;59606;52.138;5.424;2022-07-06T09:36:49;102693.31;;;19.89;47.34
71772;BME280;59606;52.138;5.424;2022-07-06T09:39:20;102692.69;;;19.98;48.09
71772;BME280;59606;52.138;5.424;2022-07-06T09:41:49;102693.13;;;20.05;48.89
71772;BME280;59606;52.138;5.424;2022-07-06T09:44:25;102698.66;;;20.02;47.20
71772;BME280;59606;52.138;5.424;2022-07-06T09:46:55;102700.84;;;19.95;46.89
71772;BME280;59606;52.138;5.424;2022-07-06T09:49:22;102695.56;;;19.95;48.03
71772;BME280;59606;52.138;5.424;2022-07-06T09:51:57;102702.44;;;19.98;48.31
71772;BME280;59606;52.138;5.424;2022-07-06T09:54:24;102700.22;;;20.05;47.71
71772;BME280;59606;52.138;5.424;2022-07-06T09:56:53;102703.31;;;20.11;46.88
71772;BME280;59606;52.138;5.424;2022-07-06T09:59:21;102703.03;;;20.16;46.83
71772;BME280;59606;52.138;5.424;2022-07-06T10:01:51;102709.72;;;20.21;46.95
71772;BME280;59606;52.138;5.424;2022-07-06T10:04:18;102711.31;;;20.24;46.55
71772;BME280;59606;52.138;5.424;2022-07-06T10:06:48;102714.06;;;20.22;47.52
71772;BME280;59606;52.138;5.424;2022-07-06T10:09:15;102701.16;;;20.31;43.43
71772;BME280;59606;52.138;5.424;2022-07-06T10:11:45;102708.50;;;20.40;42.61
71772;BME280;59606;52.138;5.424;2022-07-06T10:14:17;102706.59;;;20.42;43.30
71772;BME280;59606;52.138;5.424;2022-07-06T10:16:46;102703.94;;;20.42;42.65
71772;BME280;59606;52.138;5.424;2022-07-06T10:19:14;102709.22;;;20.29;42.26
71772;BME280;59606;52.138;5.424;2022-07-06T10:21:41;102700.84;;;20.35;42.98
71772;BME280;59606;52.138;5.424;2022-07-06T10:24:08;102701.72;;;20.48;43.86
71772;BME280;59606;52.138;5.424;2022-07-06T10:26:35;102694.81;;;20.60;45.35
71772;BME280;59606;52.138;5.424;2022-07-06T10:29:04;102688.25;;;20.91;44.94
71772;BME280;59606;52.138;5.424;2022-07-06T10:31:32;102681.03;;;20.93;44.65
71772;BME280;59606;52.138;5.424;2022-07-06T10:34:00;102687.91;;;21.09;43.45
71772;BME280;59606;52.138;5.424;2022-07-06T10:36:28;102686.75;;;21.13;43.80
71772;BME280;59606;52.138;5.424;2022-07-06T10:38:55;102679.72;;;21.25;41.99
71772;BME280;59606;52.138;5.424;2022-07-06T10:41:33;102678.75;;;21.26;42.29
71772;BME280;59606;52.138;5.424;2022-07-06T10:44:19;102682.78;;;21.31;43.61
71772;BME280;59606;52.138;5.424;2022-07-06T10:46:57;102680.03;;;21.46;42.98
71772;BME280;59606;52.138;5.424;2022-07-06T10:49:25;102685.56;;;21.42;43.00
71772;BME280;59606;52.138;5.424;2022-07-06T10:52:16;102675.69;;;21.32;42.17
71772;BME280;59606;52.138;5.424;2022-07-06T10:54:43;102681.41;;;21.26;43.37
71772;BME280;59606;52.138;5.424;2022-07-06T10:57:10;102670.59;;;21.41;43.15
71772;BME280;59606;52.138;5.424;2022-07-06T11:00:00;102670.56;;;21.54;43.00
71772;BME280;59606;52.138;5.424;2022-07-06T11:02:26;102681.31;;;21.77;41.47
71772;BME280;59606;52.138;5.424;2022-07-06T11:04:53;102672.13;;;21.70;42.19
71772;BME280;59606;52.138;5.424;2022-07-06T11:07:20;102677.97;;;21.86;40.21
71772;BME280;59606;52.138;5.424;2022-07-06T11:09:54;102662.28;;;21.59;42.50
71772;BME280;59606;52.138;5.424;2022-07-06T11:12:22;102656.16;;;21.46;41.74
71772;BME280;59606;52.138;5.424;2022-07-06T11:14:49;102658.09;;;21.31;41.01
71772;BME280;59606;52.138;5.424;2022-07-06T11:17:17;102654.41;;;21.21;42.90
71772;BME280;59606;52.138;5.424;2022-07-06T11:19:58;102653.44;;;21.22;42.73
71772;BME280;59606;52.138;5.424;2022-07-06T11:22:36;102649.59;;;21.26;43.34
71772;BME280;59606;52.138;5.424;2022-07-06T11:25:04;102650.34;;;21.40;45.24
71772;BME280;59606;52.138;5.424;2022-07-06T11:27:33;102645.56;;;21.46;40.82
71772;BME280;59606;52.138;5.424;2022-07-06T11:30:00;102640.06;;;21.36;42.68
71772;BME280;59606;52.138;5.424;2022-07-06T11:32:27;102640.94;;;21.36;41.52
71772;BME280;59606;52.138;5.424;2022-07-06T11:34:54;102641.16;;;21.21;41.85
71772;BME280;59606;52.138;5.424;2022-07-06T11:37:20;102639.47;;;21.07;42.62
71772;BME280;59606;52.138;5.424;2022-07-06T11:39:49;102626.63;;;21.13;43.31
71772;BME280;59606;52.138;5.424;2022-07-06T11:42:17;102624.75;;;21.52;42.86
71772;BME280;59606;52.138;5.424;2022-07-06T11:44:45;102609.69;;;21.77;42.55
71772;BME280;59606;52.138;5.424;2022-07-06T11:47:12;102609.53;;;22.02;41.21
71772;BME280;59606;52.138;5.424;2022-07-06T11:49:43;102602.09;;;22.07;40.64
71772;BME280;59606;52.138;5.424;2022-07-06T11:52:13;102603.16;;;22.05;42.08
71772;BME280;59606;52.138;5.424;2022-07-06T11:54:40;102606.84;;;21.91;40.52
71772;BME280;59606;52.138;5.424;2022-07-06T11:57:09;102610.50;;;22.01;39.81
71772;BME280;59606;52.138;5.424;2022-07-06T11:59:38;102605.53;;;22.21;39.13
71772;BME280;59606;52.138;5.424;2022-07-06T12:02:12;102608.66;;;22.26;41.21
71772;BME280;59606;52.138;5.424;2022-07-06T12:04:42;102599.66;;;22.51;40.23
71772;BME280;59606;52.138;5.424;2022-07-06T12:07:19;102601.34;;;22.63;40.50
71772;BME280;59606;52.138;5.424;2022-07-06T12:09:46;102605.31;;;22.46;39.93
71772;BME280;59606;52.138;5.424;2022-07-06T12:12:14;102599.63;;;22.28;39.13
71772;BME280;59606;52.138;5.424;2022-07-06T12:14:41;102611.00;;;22.42;39.12
71772;BME280;59606;52.138;5.424;2022-07-06T12:17:12;102608.09;;;22.56;40.13
71772;BME280;59606;52.138;5.424;2022-07-06T12:19:40;102606.88;;;22.38;38.88
71772;BME280;59606;52.138;5.424;2022-07-06T12:22:09;102597.78;;;22.18;40.59
71772;BME280;59606;52.138;5.424;2022-07-06T12:24:36;102603.72;;;22.32;38.05
71772;BME280;59606;52.138;5.424;2022-07-06T12:27:18;102592.78;;;22.37;39.27
71772;BME280;59606;52.138;5.424;2022-07-06T12:29:46;102591.66;;;22.40;39.69
71772;BME280;59606;52.138;5.424;2022-07-06T12:32:21;102598.09;;;22.37;38.78
71772;BME280;59606;52.138;5.424;2022-07-06T12:35:09;102575.16;;;22.58;39.51
71772;BME280;59606;52.138;5.424;2022-07-06T12:37:36;102587.09;;;22.87;40.95
71772;BME280;59606;52.138;5.424;2022-07-06T12:40:13;102578.88;;;22.90;37.03
71772;BME280;59606;52.138;5.424;2022-07-06T12:42:47;102586.91;;;23.01;37.20
71772;BME280;59606;52.138;5.424;2022-07-06T12:45:14;102582.88;;;23.06;36.08
71772;BME280;59606;52.138;5.424;2022-07-06T12:47:41;102580.22;;;23.18;37.62
71772;BME280;59606;52.138;5.424;2022-07-06T12:50:10;102585.88;;;23.24;36.81
71772;BME280;59606;52.138;5.424;2022-07-06T12:52:38;102588.13;;;23.40;35.97
71772;BME280;59606;52.138;5.424;2022-07-06T12:55:06;102581.84;;;23.41;35.95
71772;BME280;59606;52.138;5.424;2022-07-06T12:57:48;102575.25;;;23.57;36.38
71772;BME280;59606;52.138;5.424;2022-07-06T13:00:16;102574.50;;;23.66;35.84